TAMU Turf Lab's Hourly Summary for Friday, July 6, 2018
Hour Temp
(f)
RH
(%)
Solar Rad.
(MJ/m2)
Rainfall
(in)
Wind
(mph)
7/6/2018 12:00 AM 77 85 0 0 0.45
7/6/2018 1:00 AM 77 77 0 0 0.56
7/6/2018 2:00 AM 77 81 0 0 0.13
7/6/2018 3:00 AM 76 83 0 0 1.74
7/6/2018 4:00 AM 75 83 0 0 0.76
7/6/2018 5:00 AM 75 83 0 0 0.27
7/6/2018 6:00 AM 74 85 0 0 0.61
7/6/2018 7:00 AM 74 87 0.02 0 1.88
7/6/2018 8:00 AM 74 83 0.3 0 5.15
7/6/2018 9:00 AM 77 74 0.9 0 6.57
7/6/2018 10:00 AM 79 67 1.58 0 5.54
7/6/2018 11:00 AM 82 62 2.17 0 5.38
7/6/2018 12:00 PM 84 53 2.62 0 4.53
7/6/2018 1:00 PM 88 46 3 0 4.75
7/6/2018 2:00 PM 90 40 3.27 0 5.87
7/6/2018 3:00 PM 91 39 2.84 0 7
7/6/2018 4:00 PM 91 37 2.77 0 7.49
7/6/2018 5:00 PM 93 35 2.47 0 8.16
7/6/2018 6:00 PM 92 38 1.64 0 7.04
7/6/2018 7:00 PM 80 40 0.49 0.02 8.45
7/6/2018 8:00 PM 77 71 0.05 0.01 5.93
7/6/2018 9:00 PM 77 73 0.02 0 6.28
7/6/2018 10:00 PM 77 78 0 0 3.87
7/6/2018 11:00 PM 77 80 0 0 4.28
Data Summary 80 65 24.14 0.03 4.28